To NAV CANADA Home Page Login to a new session Search on AWWS site Feedback and Comments Disclaimer Vers la page française équivalente Tips FAQ What's new on the site To the Forecasts and Observations / NOTAM section To "File a Flight Plan" website Publications and other links Update of the User's profile FIC Telephone Numbers My Weather Data Folder Route Weather Data Regional Weather Data Local Weather Data To the Forecasts and Observations / NOTAM section
Request Generated 09/26/2016 at 15:31:47 UTC . Weather information available at that time is displayed.

METAR/TAF

OLD CROW/YT    

METAR CYOC 261500Z 27009KT 35SM FEW015 SCT033 M00/M02 A2987 RMK
ST1SC2 SLP134=
METAR CYOC 261400Z 25005KT 35SM FEW015 SCT033 00/M01 A2987 RMK ST1SC3
ST TR SLP130=
METAR CYOC 261300Z 25006KT 35SM FEW015 SCT033 00/M01 A2987 RMK ST1SC3
ST TR CLIMAT 8.3/0.2/0.0MM SLP130=

TAF CYOC 261441Z 2615/2701 25005KT P6SM FEW015 SCT030
BECMG 2616/2618 26010KT
FM262100 26010KT P6SM FEW030
RMK NXT FCST BY 261800Z=
Your time UTC time
Weather data provided by Environment Canada and NAV CANADA